createdAt,value
2024-05-09T00:00:08.326Z,512.00
2024-05-09T00:01:06.489Z,513.00
2024-05-09T00:02:06.467Z,517.00
2024-05-09T00:03:06.501Z,518.00
2024-05-09T00:04:06.526Z,519.00
2024-05-09T00:05:06.576Z,517.00
2024-05-09T00:06:06.502Z,517.00
2024-05-09T00:07:06.506Z,517.00
2024-05-09T00:08:06.571Z,520.00
2024-05-09T00:09:06.528Z,517.00
2024-05-09T00:10:11.676Z,517.00
2024-05-09T00:11:07.572Z,517.00
2024-05-09T00:12:06.656Z,516.00
2024-05-09T00:13:06.895Z,517.00
2024-05-09T00:14:06.555Z,517.00
2024-05-09T00:15:06.474Z,518.00
2024-05-09T00:16:06.473Z,517.00
2024-05-09T00:17:06.565Z,514.00
2024-05-09T00:18:09.359Z,514.00
2024-05-09T00:19:07.123Z,514.00
2024-05-09T00:20:14.292Z,513.00
2024-05-09T00:21:07.658Z,514.00
2024-05-09T00:22:06.534Z,513.00
2024-05-09T00:23:06.589Z,514.00
2024-05-09T00:24:06.515Z,515.00
2024-05-09T00:25:06.524Z,517.00
2024-05-09T00:26:06.542Z,518.00
2024-05-09T00:27:06.574Z,518.00
2024-05-09T00:28:06.511Z,515.00
2024-05-09T00:29:06.556Z,515.00
2024-05-09T00:30:07.420Z,514.00
2024-05-09T00:31:06.607Z,517.00
2024-05-09T00:32:06.743Z,516.00
2024-05-09T00:33:08.266Z,515.00
2024-05-09T00:34:06.826Z,515.00
2024-05-09T00:35:06.832Z,513.00
2024-05-09T00:36:06.718Z,515.00
2024-05-09T00:37:06.799Z,518.00
2024-05-09T00:38:06.857Z,517.00
2024-05-09T00:39:06.735Z,516.00
2024-05-09T00:40:09.574Z,515.00
2024-05-09T00:41:07.809Z,517.00
2024-05-09T00:42:06.788Z,514.00
2024-05-09T00:43:06.864Z,514.00
2024-05-09T00:44:06.758Z,515.00
2024-05-09T00:45:06.761Z,517.00
2024-05-09T00:46:06.762Z,520.00
2024-05-09T00:47:06.900Z,519.00
2024-05-09T00:48:08.387Z,518.00
2024-05-09T00:49:06.846Z,521.00
2024-05-09T00:50:10.150Z,520.00
2024-05-09T00:51:07.894Z,515.00
2024-05-09T00:52:06.787Z,515.00
2024-05-09T00:53:07.117Z,514.00
2024-05-09T00:54:06.744Z,514.00
2024-05-09T00:55:06.748Z,516.00
2024-05-09T00:56:06.761Z,517.00
2024-05-09T00:57:06.823Z,516.00
2024-05-09T00:58:06.761Z,516.00
2024-05-09T00:59:06.931Z,514.00
2024-05-09T01:00:15.008Z,512.00
2024-05-09T01:01:07.892Z,513.00
2024-05-09T01:02:07.006Z,513.00
2024-05-09T01:03:07.345Z,515.00
2024-05-09T01:04:06.972Z,516.00
2024-05-09T01:05:06.894Z,517.00
2024-05-09T01:06:06.888Z,517.00
2024-05-09T01:07:06.928Z,517.00
2024-05-09T01:08:06.957Z,516.00
2024-05-09T01:09:06.842Z,516.00
2024-05-09T01:10:13.829Z,516.00
2024-05-09T01:11:08.024Z,516.00
2024-05-09T01:12:07.068Z,513.00
2024-05-09T01:13:07.386Z,513.00
2024-05-09T01:14:06.912Z,513.00
2024-05-09T01:15:06.933Z,513.00
2024-05-09T01:16:06.915Z,511.00
2024-05-09T01:17:07.057Z,511.00
2024-05-09T01:18:07.234Z,512.00
2024-05-09T01:19:07.025Z,514.00
2024-05-09T01:20:10.804Z,515.00
2024-05-09T01:21:08.096Z,514.00
2024-05-09T01:22:07.020Z,515.00
2024-05-09T01:23:07.174Z,517.00
2024-05-09T01:24:07.019Z,518.00
2024-05-09T01:25:07.022Z,517.00
2024-05-09T01:26:07.041Z,518.00
2024-05-09T01:27:07.024Z,518.00
2024-05-09T01:28:07.047Z,515.00
2024-05-09T01:29:07.087Z,515.00
2024-05-09T01:30:09.596Z,516.00
2024-05-09T01:31:08.143Z,516.00
2024-05-09T01:32:07.224Z,518.00
2024-05-09T01:33:09.219Z,520.00
2024-05-09T01:34:07.220Z,519.00
2024-05-09T01:35:07.201Z,517.00
2024-05-09T01:36:07.149Z,515.00
2024-05-09T01:37:07.176Z,514.00
2024-05-09T01:38:07.201Z,516.00
2024-05-09T01:39:07.152Z,515.00
2024-05-09T01:40:12.034Z,516.00
2024-05-09T01:41:08.181Z,517.00
2024-05-09T01:42:07.168Z,517.00
2024-05-09T01:43:07.352Z,516.00
2024-05-09T01:44:07.190Z,516.00
2024-05-09T01:45:07.174Z,518.00
2024-05-09T01:46:07.184Z,518.00
2024-05-09T01:47:07.297Z,520.00
2024-05-09T01:48:07.396Z,521.00
2024-05-09T01:49:07.383Z,523.00
2024-05-09T01:50:10.692Z,522.00
2024-05-09T01:51:07.361Z,520.00
2024-05-09T01:52:07.224Z,519.00
2024-05-09T01:53:07.334Z,519.00
2024-05-09T01:54:07.207Z,519.00
2024-05-09T01:55:07.245Z,518.00
2024-05-09T01:56:07.294Z,516.00
2024-05-09T01:57:07.238Z,515.00
2024-05-09T01:58:07.413Z,511.00
2024-05-09T01:59:07.251Z,510.00
2024-05-09T02:00:07.988Z,510.00
2024-05-09T02:01:07.282Z,510.00
2024-05-09T02:02:07.304Z,510.00
2024-05-09T02:03:07.574Z,510.00
2024-05-09T02:04:08.423Z,509.00
2024-05-09T02:05:09.160Z,508.00
2024-05-09T02:06:07.358Z,507.00
2024-05-09T02:07:07.252Z,506.00
2024-05-09T02:08:07.742Z,507.00
2024-05-09T02:09:07.235Z,504.00
2024-05-09T02:10:13.765Z,502.00
2024-05-09T02:11:08.279Z,503.00
2024-05-09T02:12:07.424Z,504.00
2024-05-09T02:13:07.274Z,504.00
2024-05-09T02:14:07.300Z,505.00
2024-05-09T02:15:07.261Z,506.00
2024-05-09T02:16:07.251Z,505.00
2024-05-09T02:17:07.371Z,507.00
2024-05-09T02:18:07.598Z,510.00
2024-05-09T02:19:07.360Z,511.00
2024-05-09T02:20:10.766Z,510.00
2024-05-09T02:21:08.457Z,509.00
2024-05-09T02:22:07.307Z,508.00
2024-05-09T02:23:07.515Z,510.00
2024-05-09T02:24:07.308Z,511.00
2024-05-09T02:25:07.307Z,511.00
2024-05-09T02:26:07.348Z,510.00
2024-05-09T02:27:07.323Z,508.00
2024-05-09T02:28:07.316Z,507.00
2024-05-09T02:29:07.385Z,508.00
2024-05-09T02:30:18.361Z,509.00
2024-05-09T02:31:08.364Z,509.00
2024-05-09T02:32:07.428Z,506.00
2024-05-09T02:33:08.078Z,506.00
2024-05-09T02:34:07.429Z,507.00
2024-05-09T02:35:07.401Z,508.00
2024-05-09T02:36:07.368Z,507.00
2024-05-09T02:37:07.662Z,506.00
2024-05-09T02:38:07.414Z,507.00
2024-05-09T02:39:07.377Z,507.00
2024-05-09T02:40:11.572Z,508.00
2024-05-09T02:41:08.481Z,509.00
2024-05-09T02:42:07.463Z,510.00
2024-05-09T02:43:07.984Z,509.00
2024-05-09T02:44:07.469Z,506.00
2024-05-09T02:45:07.450Z,508.00
2024-05-09T02:46:07.454Z,512.00
2024-05-09T02:47:07.648Z,516.00
2024-05-09T02:48:07.730Z,518.00
2024-05-09T02:49:07.663Z,518.00
2024-05-09T02:50:08.304Z,513.00
2024-05-09T02:51:08.711Z,511.00
2024-05-09T02:52:07.622Z,512.00
2024-05-09T02:53:08.143Z,511.00
2024-05-09T02:54:07.762Z,513.00
2024-05-09T02:55:07.781Z,517.00
2024-05-09T02:56:07.944Z,517.00
2024-05-09T02:57:07.915Z,518.00
2024-05-09T02:58:07.994Z,517.00
2024-05-09T02:59:08.074Z,517.00
2024-05-09T03:00:15.149Z,517.00
2024-05-09T03:01:09.122Z,516.00
2024-05-09T03:02:08.153Z,515.00
2024-05-09T03:03:09.449Z,514.00
2024-05-09T03:04:08.296Z,514.00
2024-05-09T03:05:08.129Z,514.00
2024-05-09T03:06:08.106Z,515.00
2024-05-09T03:07:08.665Z,513.00
2024-05-09T03:08:08.361Z,513.00
2024-05-09T03:09:08.110Z,513.00
2024-05-09T03:10:14.970Z,511.00
2024-05-09T03:11:09.244Z,509.00
2024-05-09T03:12:08.267Z,509.00
2024-05-09T03:13:08.272Z,509.00
2024-05-09T03:14:10.867Z,508.00
2024-05-09T03:15:08.180Z,509.00
2024-05-09T03:16:08.112Z,511.00
2024-05-09T03:17:08.199Z,511.00
2024-05-09T03:18:08.269Z,511.00
2024-05-09T03:19:08.191Z,510.00
2024-05-09T03:20:17.022Z,511.00
2024-05-09T03:21:09.232Z,511.00
2024-05-09T03:22:08.130Z,511.00
2024-05-09T03:23:09.308Z,513.00
2024-05-09T03:24:08.120Z,511.00
2024-05-09T03:25:08.121Z,511.00
2024-05-09T03:26:08.163Z,511.00
2024-05-09T03:27:08.160Z,512.00
2024-05-09T03:28:08.126Z,513.00
2024-05-09T03:29:08.193Z,512.00
2024-05-09T03:30:09.950Z,511.00
2024-05-09T03:31:08.284Z,511.00
2024-05-09T03:32:08.488Z,512.00
2024-05-09T03:33:08.533Z,512.00
2024-05-09T03:34:08.543Z,515.00
2024-05-09T03:35:08.592Z,518.00
2024-05-09T03:36:11.091Z,516.00
2024-05-09T03:37:08.653Z,515.00
2024-05-09T03:38:08.778Z,515.00
2024-05-09T03:39:08.625Z,513.00
2024-05-09T03:40:14.497Z,509.00
2024-05-09T03:41:09.740Z,508.00
2024-05-09T03:42:08.637Z,508.00
2024-05-09T03:43:08.648Z,507.00
2024-05-09T03:44:08.660Z,511.00
2024-05-09T03:45:08.664Z,510.00
2024-05-09T03:46:08.635Z,509.00
2024-05-09T03:47:08.762Z,511.00
2024-05-09T03:48:09.017Z,510.00
2024-05-09T03:49:08.879Z,512.00
2024-05-09T03:50:17.952Z,517.00
2024-05-09T03:51:09.930Z,518.00
2024-05-09T03:52:08.814Z,517.00
2024-05-09T03:53:08.776Z,516.00
2024-05-09T03:54:08.769Z,517.00
2024-05-09T03:55:08.758Z,517.00
2024-05-09T03:56:08.785Z,517.00
2024-05-09T03:57:08.848Z,516.00
2024-05-09T03:58:08.814Z,518.00
2024-05-09T03:59:08.885Z,517.00
2024-05-09T04:00:17.745Z,518.00
2024-05-09T04:01:09.945Z,517.00
2024-05-09T04:02:09.028Z,516.00
2024-05-09T04:03:11.334Z,514.00
2024-05-09T04:04:09.074Z,512.00
2024-05-09T04:05:08.929Z,514.00
2024-05-09T04:06:08.907Z,514.00
2024-05-09T04:07:08.928Z,515.00
2024-05-09T04:08:09.071Z,514.00
2024-05-09T04:09:08.897Z,513.00
2024-05-09T04:10:13.876Z,514.00
2024-05-09T04:11:10.023Z,514.00
2024-05-09T04:12:09.743Z,512.00
2024-05-09T04:13:08.997Z,512.00
2024-05-09T04:14:09.983Z,514.00
2024-05-09T04:15:11.224Z,514.00
2024-05-09T04:16:08.958Z,514.00
2024-05-09T04:17:08.981Z,515.00
2024-05-09T04:18:09.077Z,515.00
2024-05-09T04:19:09.072Z,516.00
2024-05-09T04:20:12.426Z,514.00
2024-05-09T04:21:10.077Z,515.00
2024-05-09T04:22:08.928Z,515.00
2024-05-09T04:23:09.618Z,516.00
2024-05-09T04:24:08.930Z,518.00
2024-05-09T04:25:08.956Z,519.00
2024-05-09T04:26:08.963Z,516.00
2024-05-09T04:27:16.166Z,519.00
2024-05-09T04:28:16.134Z,517.00
2024-05-09T04:29:16.182Z,517.00
2024-05-09T04:30:25.408Z,516.00
2024-05-09T04:31:28.386Z,522.00
2024-05-09T04:32:28.446Z,519.00
2024-05-09T04:33:28.396Z,521.00
2024-05-09T04:34:28.348Z,519.00
2024-05-09T04:35:28.502Z,518.00
2024-05-09T04:36:28.282Z,518.00
2024-05-09T04:37:28.242Z,517.00
2024-05-09T04:38:28.277Z,515.00
2024-05-09T04:39:28.250Z,515.00
2024-05-09T04:40:33.543Z,518.00
2024-05-09T04:41:29.317Z,519.00
2024-05-09T04:42:28.242Z,521.00
2024-05-09T04:43:28.244Z,521.00
2024-05-09T04:44:28.385Z,518.00
2024-05-09T04:45:28.272Z,517.00
2024-05-09T04:46:28.248Z,518.00
2024-05-09T04:47:28.391Z,518.00
2024-05-09T04:48:28.573Z,518.00
2024-05-09T04:49:28.402Z,518.00
2024-05-09T04:50:35.845Z,517.00
2024-05-09T04:51:29.379Z,520.00
2024-05-09T04:52:28.382Z,518.00
2024-05-09T04:53:28.408Z,518.00
2024-05-09T04:54:35.787Z,517.00
2024-05-09T04:55:29.388Z,519.00
2024-05-09T04:56:28.493Z,519.00
2024-05-09T04:57:28.387Z,517.00
2024-05-09T04:58:28.395Z,513.00
2024-05-09T04:59:28.490Z,512.00
2024-05-09T05:00:35.249Z,514.00
2024-05-09T05:01:29.455Z,513.00
2024-05-09T05:02:28.561Z,511.00
2024-05-09T05:03:28.477Z,510.00
2024-05-09T05:04:28.485Z,511.00
2024-05-09T05:05:28.467Z,509.00
2024-05-09T05:06:28.421Z,508.00
2024-05-09T05:07:28.424Z,507.00
2024-05-09T05:08:28.503Z,506.00
2024-05-09T05:09:28.431Z,505.00
2024-05-09T05:10:34.020Z,505.00
2024-05-09T05:11:29.549Z,507.00
2024-05-09T05:12:28.640Z,507.00
2024-05-09T05:13:28.468Z,507.00
2024-05-09T05:14:28.571Z,509.00
2024-05-09T05:15:28.486Z,507.00
2024-05-09T05:16:28.484Z,508.00
2024-05-09T05:17:28.690Z,510.00
2024-05-09T05:18:28.883Z,509.00
2024-05-09T05:19:28.701Z,513.00
2024-05-09T05:20:33.523Z,513.00
2024-05-09T05:21:29.603Z,512.00
2024-05-09T05:22:28.652Z,512.00
2024-05-09T05:23:30.476Z,516.00
2024-05-09T05:24:28.561Z,518.00
2024-05-09T05:25:28.577Z,518.00
2024-05-09T05:26:28.593Z,517.00
2024-05-09T05:27:28.563Z,515.00
2024-05-09T05:28:29.344Z,514.00
2024-05-09T05:29:28.713Z,513.00
2024-05-09T05:30:32.972Z,512.00
2024-05-09T05:31:29.721Z,513.00
2024-05-09T05:32:29.475Z,514.00
2024-05-09T05:33:29.012Z,516.00
2024-05-09T05:34:28.691Z,516.00
2024-05-09T05:35:28.772Z,516.00
2024-05-09T05:36:28.665Z,516.00
2024-05-09T05:37:28.618Z,517.00
2024-05-09T05:38:28.899Z,518.00
2024-05-09T05:39:28.680Z,518.00
2024-05-09T05:40:35.888Z,516.00
2024-05-09T05:41:29.693Z,518.00
2024-05-09T05:42:28.627Z,515.00
2024-05-09T05:43:28.633Z,517.00
2024-05-09T05:44:28.716Z,519.00
2024-05-09T05:45:28.648Z,519.00
2024-05-09T05:46:28.684Z,519.00
2024-05-09T05:47:28.725Z,519.00
2024-05-09T05:48:28.721Z,519.00
2024-05-09T05:49:28.717Z,516.00
2024-05-09T05:50:35.451Z,515.00
2024-05-09T05:51:29.738Z,516.00
2024-05-09T05:52:28.647Z,515.00
2024-05-09T05:53:28.675Z,517.00
2024-05-09T05:54:28.673Z,515.00
2024-05-09T05:55:28.641Z,517.00
2024-05-09T05:56:28.680Z,518.00
2024-05-09T05:57:28.653Z,519.00
2024-05-09T05:58:28.651Z,520.00
2024-05-09T05:59:28.685Z,520.00
2024-05-09T06:00:34.081Z,518.00
2024-05-09T06:01:29.701Z,516.00
2024-05-09T06:02:28.840Z,513.00
2024-05-09T06:03:28.726Z,513.00
2024-05-09T06:04:28.697Z,513.00
2024-05-09T06:05:28.749Z,514.00
2024-05-09T06:06:28.661Z,513.00
2024-05-09T06:07:28.685Z,513.00
2024-05-09T06:08:30.539Z,510.00
2024-05-09T06:09:28.673Z,510.00
2024-05-09T06:10:35.194Z,510.00
2024-05-09T06:11:29.804Z,510.00
2024-05-09T06:12:28.793Z,509.00
2024-05-09T06:13:28.685Z,508.00
2024-05-09T06:14:28.904Z,510.00
2024-05-09T06:15:28.749Z,510.00
2024-05-09T06:16:28.741Z,510.00
2024-05-09T06:17:29.459Z,512.00
2024-05-09T06:18:28.806Z,512.00
2024-05-09T06:19:28.833Z,514.00
2024-05-09T06:20:35.267Z,512.00
2024-05-09T06:21:29.798Z,510.00
2024-05-09T06:22:28.698Z,513.00
2024-05-09T06:23:28.786Z,512.00
2024-05-09T06:24:28.701Z,511.00
2024-05-09T06:25:28.712Z,514.00
2024-05-09T06:26:28.741Z,514.00
2024-05-09T06:27:28.754Z,512.00
2024-05-09T06:28:28.717Z,512.00
2024-05-09T06:29:28.853Z,512.00
2024-05-09T06:30:37.004Z,510.00
2024-05-09T06:31:29.719Z,510.00
2024-05-09T06:32:28.874Z,510.00
2024-05-09T06:33:29.050Z,509.00
2024-05-09T06:34:28.878Z,510.00
2024-05-09T06:35:29.465Z,510.00
2024-05-09T06:36:28.734Z,511.00
2024-05-09T06:37:28.717Z,509.00
2024-05-09T06:38:28.752Z,509.00
2024-05-09T06:39:28.732Z,508.00
2024-05-09T06:40:36.635Z,507.00
2024-05-09T06:41:29.933Z,509.00
2024-05-09T06:42:28.731Z,509.00
2024-05-09T06:43:28.728Z,510.00
2024-05-09T06:44:28.818Z,509.00
2024-05-09T06:45:28.733Z,510.00
2024-05-09T06:46:28.726Z,510.00
2024-05-09T06:47:29.061Z,512.00
2024-05-09T06:48:28.882Z,512.00
2024-05-09T06:49:28.788Z,514.00
2024-05-09T06:50:35.720Z,513.00
2024-05-09T06:51:29.878Z,514.00
2024-05-09T06:52:28.954Z,515.00
2024-05-09T06:53:28.931Z,516.00
2024-05-09T06:54:28.902Z,514.00
2024-05-09T06:55:28.949Z,514.00
2024-05-09T06:56:30.026Z,512.00
2024-05-09T06:57:28.962Z,513.00
2024-05-09T06:58:28.990Z,513.00
2024-05-09T06:59:29.288Z,512.00
2024-05-09T07:00:35.813Z,515.00
2024-05-09T07:01:30.120Z,514.00
2024-05-09T07:02:29.114Z,515.00
2024-05-09T07:03:29.198Z,515.00
2024-05-09T07:04:29.157Z,515.00
2024-05-09T07:05:29.136Z,514.00
2024-05-09T07:06:29.050Z,513.00
2024-05-09T07:07:29.030Z,513.00
2024-05-09T07:08:29.087Z,513.00
2024-05-09T07:09:29.045Z,514.00
2024-05-09T07:10:34.447Z,515.00
2024-05-09T07:11:30.310Z,513.00
2024-05-09T07:12:29.195Z,514.00
2024-05-09T07:13:29.032Z,515.00
2024-05-09T07:14:29.278Z,517.00
2024-05-09T07:15:29.128Z,518.00
2024-05-09T07:16:30.036Z,518.00
2024-05-09T07:17:29.322Z,514.00
2024-05-09T07:18:29.306Z,515.00
2024-05-09T07:19:29.299Z,514.00
2024-05-09T07:20:34.451Z,513.00
2024-05-09T07:21:30.886Z,515.00
2024-05-09T07:22:29.058Z,514.00
2024-05-09T07:23:29.109Z,517.00
2024-05-09T07:24:29.047Z,520.00
2024-05-09T07:25:29.139Z,520.00
2024-05-09T07:26:32.946Z,519.00
2024-05-09T07:27:29.057Z,519.00
2024-05-09T07:28:29.064Z,523.00
2024-05-09T07:29:29.116Z,522.00
2024-05-09T07:30:33.367Z,523.00
2024-05-09T07:31:30.067Z,523.00
2024-05-09T07:32:29.166Z,521.00
2024-05-09T07:33:29.243Z,522.00
2024-05-09T07:34:29.103Z,521.00
2024-05-09T07:35:29.314Z,518.00
2024-05-09T07:36:29.081Z,514.00
2024-05-09T07:37:29.069Z,515.00
2024-05-09T07:38:29.144Z,515.00
2024-05-09T07:39:29.072Z,517.00
2024-05-09T07:40:35.568Z,516.00
2024-05-09T07:41:30.226Z,517.00
2024-05-09T07:42:29.081Z,516.00
2024-05-09T07:43:29.089Z,514.00
2024-05-09T07:44:29.202Z,515.00
2024-05-09T07:45:45.391Z,513.00
2024-05-09T07:47:36.969Z,512.00
2024-05-09T07:48:57.206Z,514.00
2024-05-09T07:50:01.204Z,513.00
2024-05-09T07:53:08.509Z,512.00
2024-05-09T07:53:32.610Z,511.00
2024-05-09T07:53:40.355Z,512.00
2024-05-09T07:54:30.319Z,511.00
2024-05-09T07:55:29.390Z,512.00
2024-05-09T07:56:30.362Z,514.00
2024-05-09T07:57:29.171Z,518.00
2024-05-09T07:58:29.171Z,518.00
2024-05-09T07:59:29.133Z,518.00
2024-05-09T08:00:31.713Z,513.00
2024-05-09T08:01:29.286Z,512.00
2024-05-09T08:02:29.248Z,514.00
2024-05-09T08:03:29.292Z,515.00
2024-05-09T08:04:29.308Z,516.00
2024-05-09T08:05:29.346Z,517.00
2024-05-09T08:06:29.196Z,516.00
2024-05-09T08:07:29.939Z,517.00
2024-05-09T08:08:29.173Z,518.00
2024-05-09T08:09:29.222Z,516.00
2024-05-09T08:10:29.485Z,517.00
2024-05-09T08:11:29.195Z,518.00
2024-05-09T08:12:29.220Z,517.00
2024-05-09T08:13:29.160Z,515.00
2024-05-09T08:14:29.192Z,514.00
2024-05-09T08:15:29.490Z,514.00
2024-05-09T08:16:29.285Z,512.00
2024-05-09T08:17:29.279Z,513.00
2024-05-09T08:18:29.399Z,511.00
2024-05-09T08:19:29.223Z,512.00
2024-05-09T08:20:33.645Z,513.00
2024-05-09T08:21:30.306Z,512.00
2024-05-09T08:22:29.176Z,515.00
2024-05-09T08:23:29.186Z,516.00
2024-05-09T08:24:29.271Z,515.00
2024-05-09T08:25:29.183Z,515.00
2024-05-09T08:26:29.178Z,516.00
2024-05-09T08:27:29.243Z,515.00
2024-05-09T08:28:29.303Z,515.00
2024-05-09T08:29:29.991Z,517.00
2024-05-09T08:30:34.136Z,516.00
2024-05-09T08:31:30.508Z,514.00
2024-05-09T08:32:29.389Z,514.00
2024-05-09T08:33:29.486Z,514.00
2024-05-09T08:34:29.499Z,516.00
2024-05-09T08:35:29.349Z,515.00
2024-05-09T08:36:29.404Z,514.00
2024-05-09T08:37:32.886Z,512.00
2024-05-09T08:38:30.377Z,512.00
2024-05-09T08:39:29.396Z,513.00
2024-05-09T08:40:34.580Z,514.00
2024-05-09T08:41:30.356Z,512.00
2024-05-09T08:42:29.470Z,512.00
2024-05-09T08:43:29.525Z,511.00
2024-05-09T08:44:29.360Z,511.00
2024-05-09T08:45:29.415Z,511.00
2024-05-09T08:46:29.540Z,512.00
2024-05-09T08:47:29.439Z,511.00
2024-05-09T08:48:29.771Z,514.00
2024-05-09T08:49:29.682Z,514.00
2024-05-09T08:50:37.695Z,516.00
2024-05-09T08:51:30.615Z,516.00
2024-05-09T08:52:29.497Z,514.00
2024-05-09T08:53:29.521Z,512.00
2024-05-09T08:54:29.563Z,513.00
2024-05-09T08:55:30.441Z,513.00
2024-05-09T08:56:29.515Z,513.00
2024-05-09T08:57:29.555Z,516.00
2024-05-09T08:58:32.004Z,515.00
2024-05-09T08:59:29.609Z,515.00
2024-05-09T09:00:36.303Z,513.00
2024-05-09T09:01:30.811Z,515.00
2024-05-09T09:02:29.835Z,516.00
2024-05-09T09:03:30.021Z,516.00
2024-05-09T09:04:29.720Z,513.00
2024-05-09T09:05:29.860Z,511.00
2024-05-09T09:06:29.689Z,511.00
2024-05-09T09:07:29.771Z,510.00
2024-05-09T09:08:29.746Z,510.00
2024-05-09T09:09:29.733Z,508.00
2024-05-09T09:10:32.304Z,508.00
2024-05-09T09:11:29.679Z,507.00
2024-05-09T09:12:29.739Z,506.00
2024-05-09T09:13:29.660Z,507.00
2024-05-09T09:14:29.668Z,508.00
2024-05-09T09:15:29.687Z,507.00
2024-05-09T09:16:29.701Z,508.00
2024-05-09T09:17:29.784Z,507.00
2024-05-09T09:18:29.978Z,508.00
2024-05-09T09:19:29.734Z,507.00
2024-05-09T09:20:36.027Z,506.00
2024-05-09T09:21:32.027Z,506.00
2024-05-09T09:22:29.889Z,504.00
2024-05-09T09:23:30.462Z,503.00
2024-05-09T09:24:29.874Z,503.00
2024-05-09T09:25:29.826Z,504.00
2024-05-09T09:26:29.844Z,504.00
2024-05-09T09:27:29.870Z,504.00
2024-05-09T09:28:30.162Z,503.00
2024-05-09T09:29:30.474Z,501.00
2024-05-09T09:30:36.594Z,502.00
2024-05-09T09:31:31.226Z,503.00
2024-05-09T09:32:30.113Z,504.00
2024-05-09T09:33:30.155Z,503.00
2024-05-09T09:34:30.089Z,503.00
2024-05-09T09:35:30.019Z,504.00
2024-05-09T09:36:30.043Z,507.00
2024-05-09T09:37:30.036Z,507.00
2024-05-09T09:38:30.026Z,506.00
2024-05-09T09:39:30.050Z,505.00
2024-05-09T09:40:32.927Z,504.00
2024-05-09T09:41:30.023Z,503.00
2024-05-09T09:42:30.076Z,501.00
2024-05-09T09:43:30.033Z,500.00
2024-05-09T09:44:30.032Z,499.00
2024-05-09T09:45:30.105Z,502.00
2024-05-09T09:46:30.233Z,501.00
2024-05-09T09:47:30.135Z,502.00
2024-05-09T09:48:30.161Z,502.00
2024-05-09T09:49:30.056Z,500.00
2024-05-09T09:50:34.436Z,500.00
2024-05-09T09:51:31.059Z,502.00
2024-05-09T09:52:30.085Z,501.00
2024-05-09T09:53:30.068Z,502.00
2024-05-09T09:54:30.057Z,504.00
2024-05-09T09:55:30.067Z,504.00
2024-05-09T09:56:30.082Z,502.00
2024-05-09T09:57:30.189Z,501.00
2024-05-09T09:58:30.280Z,499.00
2024-05-09T09:59:30.080Z,499.00
2024-05-09T10:00:33.142Z,499.00
2024-05-09T10:01:30.135Z,500.00
2024-05-09T10:02:35.557Z,503.00
2024-05-09T10:03:30.524Z,505.00
2024-05-09T10:04:30.374Z,503.00
2024-05-09T10:05:30.721Z,505.00
2024-05-09T10:06:30.532Z,503.00
2024-05-09T10:07:31.433Z,503.00
2024-05-09T10:08:32.980Z,502.00
2024-05-09T10:09:32.020Z,500.00
2024-05-09T10:10:32.877Z,500.00
2024-05-09T10:11:31.642Z,499.00
2024-05-09T10:12:31.549Z,498.00
2024-05-09T10:13:30.480Z,498.00
2024-05-09T10:14:30.440Z,496.00
2024-05-09T10:15:30.457Z,494.00
2024-05-09T10:16:30.478Z,496.00
2024-05-09T10:17:37.072Z,497.00
2024-05-09T10:18:32.686Z,494.00
2024-05-09T10:19:31.517Z,495.00
2024-05-09T10:20:32.689Z,495.00
2024-05-09T10:21:30.705Z,491.00
2024-05-09T10:22:30.668Z,492.00
2024-05-09T10:23:30.745Z,494.00
2024-05-09T10:24:30.891Z,493.00
2024-05-09T10:25:30.745Z,495.00
2024-05-09T10:26:30.711Z,495.00
2024-05-09T10:27:30.768Z,496.00
2024-05-09T10:28:30.776Z,496.00
2024-05-09T10:29:30.762Z,498.00
2024-05-09T10:30:35.829Z,497.00
2024-05-09T10:31:31.767Z,497.00
2024-05-09T10:32:30.851Z,497.00
2024-05-09T10:33:30.952Z,496.00
2024-05-09T10:34:30.889Z,499.00
2024-05-09T10:35:31.811Z,500.00
2024-05-09T10:36:30.841Z,501.00
2024-05-09T10:37:30.829Z,498.00
2024-05-09T10:38:30.791Z,499.00
2024-05-09T10:39:30.831Z,497.00
2024-05-09T10:40:31.863Z,495.00
2024-05-09T10:41:30.779Z,495.00
2024-05-09T10:42:30.790Z,496.00
2024-05-09T10:43:30.808Z,499.00
2024-05-09T10:44:30.770Z,498.00
2024-05-09T10:45:30.815Z,496.00
2024-05-09T10:46:30.937Z,497.00
2024-05-09T10:47:30.897Z,500.00
2024-05-09T10:48:30.863Z,498.00
2024-05-09T10:49:30.856Z,501.00
2024-05-09T10:50:34.192Z,502.00
2024-05-09T10:51:30.806Z,502.00
2024-05-09T10:52:30.784Z,498.00
2024-05-09T10:53:30.794Z,493.00
2024-05-09T10:54:30.811Z,491.00
2024-05-09T10:55:30.870Z,489.00
2024-05-09T10:56:30.797Z,492.00
2024-05-09T10:57:30.853Z,491.00
2024-05-09T10:58:30.803Z,492.00
2024-05-09T10:59:30.806Z,494.00
2024-05-09T11:00:35.718Z,495.00
2024-05-09T11:01:31.959Z,498.00
2024-05-09T11:02:30.997Z,498.00
2024-05-09T11:03:31.026Z,500.00
2024-05-09T11:04:30.883Z,501.00
2024-05-09T11:05:30.876Z,503.00
2024-05-09T11:06:30.844Z,504.00
2024-05-09T11:07:30.882Z,504.00
2024-05-09T11:08:30.821Z,504.00
2024-05-09T11:09:30.841Z,506.00
2024-05-09T11:10:34.069Z,506.00
2024-05-09T11:11:30.891Z,504.00
2024-05-09T11:12:30.875Z,505.00
2024-05-09T11:13:31.019Z,505.00
2024-05-09T11:14:30.897Z,508.00
2024-05-09T11:15:30.964Z,507.00
2024-05-09T11:16:30.914Z,509.00
2024-05-09T11:17:30.940Z,505.00
2024-05-09T11:18:34.827Z,503.00
2024-05-09T11:19:31.978Z,502.00
2024-05-09T11:20:34.815Z,499.00
2024-05-09T11:21:30.867Z,499.00
2024-05-09T11:22:30.847Z,496.00
2024-05-09T11:23:31.092Z,495.00
2024-05-09T11:24:30.875Z,495.00
2024-05-09T11:25:30.863Z,495.00
2024-05-09T11:26:30.857Z,496.00
2024-05-09T11:27:30.896Z,495.00
2024-05-09T11:28:30.865Z,496.00
2024-05-09T11:29:30.862Z,497.00
2024-05-09T11:30:32.344Z,495.00
2024-05-09T11:31:30.973Z,495.00
2024-05-09T11:32:31.051Z,496.00
2024-05-09T11:33:31.080Z,495.00
2024-05-09T11:34:30.915Z,496.00
2024-05-09T11:35:30.873Z,498.00
2024-05-09T11:36:30.892Z,499.00
2024-05-09T11:37:32.716Z,500.00
2024-05-09T11:38:30.879Z,501.00
2024-05-09T11:39:30.908Z,500.00
2024-05-09T11:40:34.264Z,499.00
2024-05-09T11:41:30.892Z,499.00
2024-05-09T11:42:30.937Z,499.00
2024-05-09T11:43:31.047Z,500.00
2024-05-09T11:44:30.914Z,503.00
2024-05-09T11:45:30.957Z,505.00
2024-05-09T11:46:30.932Z,505.00
2024-05-09T11:47:31.009Z,504.00
2024-05-09T11:48:31.237Z,502.00
2024-05-09T11:49:30.986Z,503.00
2024-05-09T11:50:35.327Z,504.00
2024-05-09T11:51:31.974Z,504.00
2024-05-09T11:52:30.913Z,502.00
2024-05-09T11:53:30.923Z,503.00
2024-05-09T11:54:30.999Z,502.00
2024-05-09T11:55:31.055Z,502.00
2024-05-09T11:56:30.936Z,504.00
2024-05-09T11:57:30.986Z,503.00
2024-05-09T11:58:30.925Z,506.00
2024-05-09T11:59:30.932Z,505.00
2024-05-09T12:00:36.631Z,503.00
2024-05-09T12:01:32.214Z,502.00
2024-05-09T12:02:31.012Z,502.00
2024-05-09T12:03:31.125Z,502.00
2024-05-09T12:04:31.186Z,503.00
2024-05-09T12:05:31.076Z,506.00
2024-05-09T12:06:30.967Z,506.00
2024-05-09T12:07:30.992Z,504.00
2024-05-09T12:08:30.941Z,500.00
2024-05-09T12:09:30.985Z,499.00
2024-05-09T12:10:33.969Z,497.00
2024-05-09T12:11:30.999Z,495.00
2024-05-09T12:12:31.018Z,494.00
2024-05-09T12:13:31.020Z,496.00
2024-05-09T12:14:30.946Z,495.00
2024-05-09T12:15:31.030Z,494.00
2024-05-09T12:16:31.164Z,494.00
2024-05-09T12:17:31.084Z,493.00
2024-05-09T12:18:31.134Z,493.00
2024-05-09T12:19:31.011Z,494.00
2024-05-09T12:20:36.348Z,493.00
2024-05-09T12:21:31.999Z,493.00
2024-05-09T12:22:30.960Z,492.00
2024-05-09T12:23:30.965Z,490.00
2024-05-09T12:24:31.080Z,491.00
2024-05-09T12:25:30.973Z,494.00
2024-05-09T12:26:30.971Z,494.00
2024-05-09T12:27:31.029Z,494.00
2024-05-09T12:28:31.007Z,495.00
2024-05-09T12:29:30.980Z,496.00
2024-05-09T12:30:36.453Z,498.00